Aérodrome :
LOGIN :

S'inscrire | Disclaimer

   EN    FR    IT 

 










Légende :    VFR   VFR Marginal   IFR   IFR Intensif   IFR Très Intensif
Visi : 
Plafond : 
>= 8 km
>= 3000ft
5 à 8 km
1000 à 3000 ft
1500m à 5 km
500 à 1000 ft
800 à 1500m
200 à 500 ft
< 800m
< 200 ft
Symboles :   Orages  Brouillard  Fortes neiges  Fortes précipitations  Vent > 20 kt
SIGMETs :   Divers  Orages  Givrage  Turbulence  Onde Orograph.  Cendres Volcan.






- Altitude de l'aérodrome : 74 ft
- Code IATA : MRS


LFML - Marseille / Marignane

DERNIER METAR :
  • 101030Z AUTO 09007KT 050V170 9999 BKN044 BKN056 OVC068 16/04 Q1018 NOSIG

METARs EXPIRÉS :
  • 101000Z AUTO 10008KT CAVOK 15/05 Q1018 NOSIG
  • 100930Z AUTO 08009KT 9999 FEW044 OVC050 14/04 Q1018 NOSIG
  • 100900Z AUTO 10010KT 9999 BKN042 OVC048 14/04 Q1018 NOSIG
  • 100830Z AUTO 10009KT 9999 OVC047 14/04 Q1018 NOSIG

TAF TAF LFML
Valide du 10 à 09h jusqu'au 11 à 15h UTC


100800Z 1009/1115 13013KT CAVOK TX17/1012Z TN11/1020Z
BECMG 1015/1017 RA
BECMG 1022/1024 07010KT
BECMG 1105/1107 VRB02KT NSW
BECMG 1109/1111 15014KT
ATIS : +33 4 42 31 15 15



MET'MAP, la Météo Aéronautique d'un coup d'oeil ! - Copyright ORBIFLY Décembre 2007 - Disclaimer

ORBIFLY MET'MAP TEAM :

Programmation & Développement : Alexandra Zaïnal
Sur une idée originale de : Baudouin d'Aumeries
Assistance à la programmation : Marc-Olivier Méhu
Soutien technique & logistique : Manuel Goepfert

Contact : metmap@orbifly.com




SOURCES & CREDITS :

   NOAA